createdAt,value
2022-09-30T00:01:56.227Z,5.00
2022-09-30T00:04:25.634Z,4.68
2022-09-30T00:06:54.842Z,4.68
2022-09-30T00:09:24.767Z,4.80
2022-09-30T00:11:53.305Z,4.68
2022-09-30T00:14:22.762Z,4.43
2022-09-30T00:16:51.394Z,4.68
2022-09-30T00:19:19.811Z,5.03
2022-09-30T00:21:48.176Z,4.50
2022-09-30T00:24:16.511Z,5.10
2022-09-30T00:26:46.230Z,5.38
2022-09-30T00:29:14.613Z,4.93
2022-09-30T00:31:43.171Z,5.35
2022-09-30T00:34:12.185Z,4.95
2022-09-30T00:36:43.589Z,4.85
2022-09-30T00:39:13.913Z,5.10
2022-09-30T00:41:42.353Z,5.15
2022-09-30T00:44:29.109Z,5.07
2022-09-30T00:46:59.466Z,5.47
2022-09-30T00:49:27.933Z,4.85
2022-09-30T00:51:58.638Z,5.10
2022-09-30T00:54:28.596Z,5.45
2022-09-30T00:56:59.260Z,4.95
2022-09-30T00:59:29.129Z,5.57
2022-09-30T01:01:59.409Z,5.85
2022-09-30T01:04:29.257Z,5.38
2022-09-30T01:06:57.659Z,5.75
2022-09-30T01:09:26.123Z,5.57
2022-09-30T01:11:54.639Z,6.20
2022-09-30T01:14:25.455Z,6.20
2022-09-30T01:17:00.265Z,5.68
2022-09-30T01:19:38.787Z,5.72
2022-09-30T01:22:31.251Z,5.88
2022-09-30T01:25:17.357Z,5.88
2022-09-30T01:27:55.111Z,5.63
2022-09-30T01:30:25.343Z,6.10
2022-09-30T01:33:13.032Z,5.30
2022-09-30T01:35:52.725Z,6.40
2022-09-30T01:38:26.777Z,5.65
2022-09-30T01:41:00.185Z,5.07
2022-09-30T01:43:32.198Z,6.55
2022-09-30T01:46:03.374Z,6.05
2022-09-30T01:48:37.281Z,6.80
2022-09-30T01:51:07.744Z,7.07
2022-09-30T01:53:40.898Z,6.65
2022-09-30T01:56:14.677Z,7.00
2022-09-30T01:58:44.556Z,6.85
2022-09-30T02:01:16.682Z,7.03
2022-09-30T02:03:49.297Z,6.40
2022-09-30T02:06:20.591Z,6.57
2022-09-30T02:08:51.454Z,7.53
2022-09-30T02:11:22.152Z,6.68
2022-09-30T02:13:52.219Z,7.53
2022-09-30T02:16:23.217Z,6.47
2022-09-30T02:18:55.449Z,7.20
2022-09-30T02:21:25.839Z,6.65
2022-09-30T02:23:56.356Z,7.68
2022-09-30T02:26:27.621Z,7.35
2022-09-30T02:28:59.244Z,7.10
2022-09-30T02:31:29.266Z,7.78
2022-09-30T02:34:03.028Z,8.38
2022-09-30T02:36:33.107Z,7.03
2022-09-30T02:39:02.734Z,8.02
2022-09-30T02:41:32.964Z,7.75
2022-09-30T02:44:02.739Z,8.00
2022-09-30T02:46:36.095Z,8.55
2022-09-30T02:49:08.316Z,7.88
2022-09-30T02:51:40.173Z,8.52
2022-09-30T02:54:15.763Z,8.40
2022-09-30T02:56:50.435Z,8.02
2022-09-30T02:59:18.895Z,8.23
2022-09-30T03:01:47.331Z,8.02
2022-09-30T03:04:20.970Z,8.13
2022-09-30T03:06:49.763Z,7.90
2022-09-30T03:09:18.492Z,7.80
2022-09-30T03:11:47.766Z,8.07
2022-09-30T03:14:24.793Z,8.43
2022-09-30T03:16:59.864Z,8.70
2022-09-30T03:19:38.283Z,8.40
2022-09-30T03:22:15.281Z,8.48
2022-09-30T03:24:52.446Z,8.10
2022-09-30T03:27:30.243Z,8.20
2022-09-30T03:30:02.319Z,8.45
2022-09-30T03:32:40.078Z,8.43
2022-09-30T03:35:14.034Z,8.63
2022-09-30T03:37:46.701Z,8.75
2022-09-30T03:40:18.871Z,8.68
2022-09-30T03:42:49.599Z,8.50
2022-09-30T03:45:20.201Z,8.55
2022-09-30T03:47:49.732Z,8.82
2022-09-30T03:50:21.490Z,9.02
2022-09-30T03:52:50.797Z,7.60
2022-09-30T03:55:19.968Z,8.90
2022-09-30T03:57:49.527Z,9.27
2022-09-30T04:00:19.028Z,8.35
2022-09-30T04:02:47.493Z,8.93
2022-09-30T04:05:15.975Z,8.70
2022-09-30T04:07:45.752Z,8.55
2022-09-30T04:10:14.113Z,8.48
2022-09-30T04:12:42.582Z,8.50
2022-09-30T04:15:11.448Z,8.63
2022-09-30T04:17:39.856Z,8.10
2022-09-30T04:20:08.387Z,8.50
2022-09-30T04:22:36.782Z,8.80
2022-09-30T04:25:06.961Z,9.05
2022-09-30T04:27:35.391Z,7.93
2022-09-30T04:30:03.769Z,8.32
2022-09-30T04:32:32.493Z,8.68
2022-09-30T04:35:00.843Z,8.10
2022-09-30T04:37:29.209Z,8.63
2022-09-30T04:39:57.755Z,8.63
2022-09-30T04:42:27.558Z,8.82
2022-09-30T04:44:57.889Z,8.52
2022-09-30T04:47:26.305Z,8.30
2022-09-30T04:49:54.699Z,9.40
2022-09-30T04:52:23.113Z,9.07
2022-09-30T04:54:51.487Z,9.27
2022-09-30T04:57:19.977Z,9.00
2022-09-30T04:59:50.773Z,8.68
2022-09-30T05:02:19.309Z,9.18
2022-09-30T05:04:47.728Z,8.90
2022-09-30T05:07:16.149Z,8.88
2022-09-30T05:09:44.570Z,9.27
2022-09-30T05:12:12.996Z,8.73
2022-09-30T05:14:41.361Z,9.30
2022-09-30T05:17:11.145Z,9.18
2022-09-30T05:19:39.563Z,8.95
2022-09-30T05:22:07.951Z,8.95
2022-09-30T05:24:39.419Z,9.40
2022-09-30T05:27:07.812Z,8.88
2022-09-30T05:29:36.467Z,9.05
2022-09-30T05:32:04.907Z,9.30
2022-09-30T05:34:34.645Z,8.65
2022-09-30T05:37:03.061Z,9.05
2022-09-30T05:39:31.617Z,8.90
2022-09-30T05:42:00.127Z,8.65
2022-09-30T05:44:28.494Z,8.73
2022-09-30T05:46:57.036Z,8.70
2022-09-30T05:49:25.896Z,8.48
2022-09-30T05:51:55.738Z,8.77
2022-09-30T05:54:24.165Z,9.07
2022-09-30T05:56:52.761Z,8.35
2022-09-30T05:59:21.284Z,8.30
2022-09-30T06:01:49.741Z,8.90
2022-09-30T06:04:18.277Z,8.15
2022-09-30T06:06:47.804Z,8.57
2022-09-30T06:09:17.599Z,9.27
2022-09-30T06:11:46.021Z,8.35
2022-09-30T06:14:14.398Z,8.65
2022-09-30T06:16:42.853Z,8.52
2022-09-30T06:19:11.356Z,8.27
2022-09-30T06:21:40.054Z,8.23
2022-09-30T06:24:13.058Z,8.18
2022-09-30T06:26:43.440Z,8.73
2022-09-30T06:29:11.901Z,9.13
2022-09-30T06:31:40.374Z,9.00
2022-09-30T06:34:10.376Z,9.02
2022-09-30T06:36:38.801Z,9.30
2022-09-30T06:39:10.289Z,9.27
2022-09-30T06:41:44.197Z,9.38
2022-09-30T06:44:12.673Z,9.98
2022-09-30T06:46:52.535Z,9.60
2022-09-30T06:49:21.904Z,10.43
2022-09-30T06:51:51.492Z,10.38
2022-09-30T06:54:21.064Z,9.85
2022-09-30T06:56:53.822Z,10.82
2022-09-30T06:59:22.956Z,10.57
2022-09-30T07:01:51.570Z,9.85
2022-09-30T07:04:20.185Z,10.63
2022-09-30T07:06:48.685Z,10.68
2022-09-30T07:09:17.899Z,11.25
2022-09-30T07:11:46.365Z,10.73
2022-09-30T07:14:16.384Z,11.18
2022-09-30T07:16:46.567Z,10.68
2022-09-30T07:19:15.248Z,11.25
2022-09-30T07:21:43.759Z,16.88
2022-09-30T07:24:12.322Z,15.90
2022-09-30T07:26:40.866Z,17.88
2022-09-30T07:29:09.339Z,15.25
2022-09-30T07:31:39.978Z,13.73
2022-09-30T07:34:09.391Z,11.90
2022-09-30T07:36:38.827Z,11.23
2022-09-30T07:39:09.494Z,11.38
2022-09-30T07:41:39.149Z,10.88
2022-09-30T07:44:10.325Z,11.68
2022-09-30T07:46:40.649Z,12.70
2022-09-30T07:49:10.745Z,13.15
2022-09-30T07:51:40.404Z,12.02
2022-09-30T07:54:10.196Z,11.65
2022-09-30T07:59:29.252Z,12.02
2022-09-30T08:01:59.326Z,11.40
2022-09-30T08:04:28.600Z,10.77
2022-09-30T08:06:58.969Z,11.95
2022-09-30T08:09:28.336Z,11.60
2022-09-30T08:11:57.346Z,12.38
2022-09-30T08:14:26.684Z,11.80
2022-09-30T08:16:55.980Z,12.35
2022-09-30T08:19:26.882Z,12.18
2022-09-30T08:21:55.721Z,13.30
2022-09-30T08:24:24.940Z,11.60
2022-09-30T08:26:55.680Z,13.63
2022-09-30T08:29:49.994Z,13.63
2022-09-30T08:32:12.988Z,13.75
2022-09-30T08:34:43.192Z,13.45
2022-09-30T08:37:11.832Z,13.18
2022-09-30T08:39:40.468Z,13.95
2022-09-30T08:42:42.427Z,13.48
2022-09-30T08:45:19.096Z,15.15
2022-09-30T08:47:52.494Z,14.77
2022-09-30T08:50:25.891Z,15.23
2022-09-30T08:52:55.707Z,14.25
2022-09-30T08:55:26.044Z,15.10
2022-09-30T08:57:55.512Z,15.45
2022-09-30T09:00:24.342Z,15.65
2022-09-30T09:02:54.926Z,15.57
2022-09-30T09:05:31.516Z,15.10
2022-09-30T09:08:03.774Z,14.65
2022-09-30T09:10:37.151Z,13.68
2022-09-30T09:13:10.416Z,14.07
2022-09-30T09:15:44.294Z,15.40
2022-09-30T09:18:31.005Z,14.52
2022-09-30T09:21:02.300Z,14.52
2022-09-30T09:23:32.902Z,13.63
2022-09-30T09:26:01.454Z,13.45
2022-09-30T09:28:33.924Z,15.02
2022-09-30T09:31:02.866Z,14.95
2022-09-30T09:33:32.192Z,14.38
2022-09-30T09:36:07.136Z,15.25
2022-09-30T09:38:40.745Z,14.25
2022-09-30T09:41:18.769Z,15.90
2022-09-30T09:43:52.060Z,14.25
2022-09-30T09:46:24.784Z,16.05
2022-09-30T09:49:20.774Z,15.57
2022-09-30T09:51:52.940Z,15.32
2022-09-30T09:54:22.821Z,14.40
2022-09-30T09:56:53.026Z,17.63
2022-09-30T09:59:21.703Z,17.48
2022-09-30T10:01:51.191Z,17.13
2022-09-30T10:04:22.071Z,16.83
2022-09-30T10:06:54.081Z,15.90
2022-09-30T10:09:27.063Z,15.63
2022-09-30T10:12:19.550Z,16.58
2022-09-30T10:14:52.113Z,16.92
2022-09-30T10:17:21.321Z,19.70
2022-09-30T10:19:52.384Z,18.10
2022-09-30T10:22:22.738Z,18.60
2022-09-30T10:24:51.220Z,16.42
2022-09-30T10:27:30.527Z,16.88
2022-09-30T10:29:58.978Z,15.38
2022-09-30T10:32:27.609Z,15.82
2022-09-30T10:34:57.137Z,14.35
2022-09-30T10:37:26.928Z,12.95
2022-09-30T10:40:01.340Z,11.85
2022-09-30T10:42:31.311Z,11.75
2022-09-30T10:45:01.955Z,11.95
2022-09-30T10:47:36.264Z,12.40
2022-09-30T10:50:07.175Z,11.07
2022-09-30T10:52:38.349Z,11.45
2022-09-30T10:55:12.675Z,11.45
2022-09-30T10:57:42.294Z,11.48
2022-09-30T11:00:15.918Z,11.88
2022-09-30T11:02:49.401Z,11.35
2022-09-30T11:05:22.562Z,11.77
2022-09-30T11:07:55.688Z,11.75
2022-09-30T11:10:30.626Z,12.75
2022-09-30T11:13:04.127Z,11.95
2022-09-30T11:15:33.734Z,10.05
2022-09-30T11:18:04.025Z,10.25
2022-09-30T11:20:33.915Z,10.13
2022-09-30T11:23:05.913Z,10.05
2022-09-30T11:25:40.676Z,9.27
2022-09-30T11:28:28.126Z,9.73
2022-09-30T11:31:06.229Z,9.30
2022-09-30T11:33:39.245Z,9.43
2022-09-30T11:36:14.502Z,9.13
2022-09-30T11:38:53.433Z,7.30
2022-09-30T11:41:25.040Z,7.85
2022-09-30T11:43:59.020Z,7.68
2022-09-30T11:46:42.334Z,6.88
2022-09-30T11:49:20.989Z,6.57
2022-09-30T11:51:53.434Z,7.35
2022-09-30T11:54:29.285Z,7.45
2022-09-30T11:57:00.617Z,7.18
2022-09-30T11:59:31.463Z,6.80
2022-09-30T12:02:01.204Z,6.93
2022-09-30T12:04:31.601Z,6.97
2022-09-30T12:07:02.130Z,6.95
2022-09-30T12:09:33.991Z,6.47
2022-09-30T12:12:06.527Z,6.78
2022-09-30T12:14:37.029Z,7.28
2022-09-30T12:17:08.070Z,8.32
2022-09-30T12:19:38.817Z,7.30
2022-09-30T12:22:11.947Z,7.20
2022-09-30T12:24:42.865Z,7.40
2022-09-30T12:27:16.536Z,7.53
2022-09-30T12:30:07.009Z,7.00
2022-09-30T12:32:53.101Z,8.15
2022-09-30T12:35:48.882Z,7.05
2022-09-30T12:38:27.981Z,6.22
2022-09-30T12:41:04.074Z,6.47
2022-09-30T12:43:49.712Z,5.07
2022-09-30T12:46:21.818Z,6.00
2022-09-30T12:48:53.534Z,7.05
2022-09-30T12:51:27.315Z,7.05
2022-09-30T12:53:59.268Z,6.47
2022-09-30T12:56:31.071Z,6.75
2022-09-30T12:59:00.647Z,5.43
2022-09-30T13:01:30.061Z,5.60
2022-09-30T13:04:18.633Z,5.18
2022-09-30T13:07:17.279Z,4.68
2022-09-30T13:09:59.013Z,4.63
2022-09-30T13:12:30.142Z,4.50
2022-09-30T13:15:17.079Z,4.40
2022-09-30T13:17:45.892Z,4.20
2022-09-30T13:20:33.109Z,4.72
2022-09-30T13:23:01.512Z,5.07
2022-09-30T13:25:49.956Z,4.20
2022-09-30T13:28:38.901Z,3.90
2022-09-30T13:31:15.560Z,5.07
2022-09-30T13:33:45.863Z,4.88
2022-09-30T13:36:20.426Z,4.03
2022-09-30T13:39:07.201Z,4.43
2022-09-30T13:41:38.119Z,5.20
2022-09-30T13:44:10.190Z,5.22
2022-09-30T13:46:43.422Z,4.68
2022-09-30T13:49:14.704Z,5.15
2022-09-30T13:51:43.523Z,5.65
2022-09-30T13:54:15.255Z,5.43
2022-09-30T13:56:44.926Z,4.90
2022-09-30T13:59:26.583Z,6.28
2022-09-30T14:02:05.512Z,4.93
2022-09-30T14:05:00.974Z,4.93
2022-09-30T14:07:37.931Z,5.60
2022-09-30T14:10:17.203Z,5.45
2022-09-30T14:12:52.103Z,4.70
2022-09-30T14:15:28.846Z,4.97
2022-09-30T14:18:05.854Z,5.72
2022-09-30T14:20:49.684Z,4.95
2022-09-30T14:23:18.999Z,4.95
2022-09-30T14:25:51.930Z,5.10
2022-09-30T14:28:24.890Z,4.82
2022-09-30T14:31:13.243Z,4.78
2022-09-30T14:33:42.689Z,4.68
2022-09-30T14:36:14.824Z,4.95
2022-09-30T14:38:45.664Z,4.35
2022-09-30T14:41:17.928Z,4.82
2022-09-30T14:43:49.231Z,4.57
2022-09-30T14:46:22.254Z,4.50
2022-09-30T14:48:51.741Z,3.97
2022-09-30T14:51:23.691Z,3.30
2022-09-30T14:53:56.271Z,3.97
2022-09-30T14:56:29.567Z,4.65
2022-09-30T14:58:59.425Z,4.40
2022-09-30T15:01:31.117Z,4.40
2022-09-30T15:04:01.875Z,5.57
2022-09-30T15:06:31.487Z,5.10
2022-09-30T15:09:03.636Z,6.60
2022-09-30T15:11:36.081Z,5.68
2022-09-30T15:14:10.002Z,4.82
2022-09-30T15:16:46.584Z,4.28
2022-09-30T15:19:17.412Z,4.38
2022-09-30T15:21:46.303Z,4.57
2022-09-30T15:24:14.765Z,4.05
2022-09-30T15:26:43.563Z,4.00
2022-09-30T15:29:14.398Z,3.88
2022-09-30T15:31:46.154Z,3.70
2022-09-30T15:34:20.420Z,3.08
2022-09-30T15:36:58.425Z,3.30
2022-09-30T15:39:49.560Z,3.05
2022-09-30T15:42:33.178Z,3.63
2022-09-30T15:45:01.572Z,2.90
2022-09-30T15:47:31.356Z,2.58
2022-09-30T15:50:00.532Z,2.63
2022-09-30T15:52:30.617Z,2.45
2022-09-30T15:54:59.603Z,2.30
2022-09-30T15:57:42.865Z,2.00
2022-09-30T16:00:33.480Z,2.00
2022-09-30T16:03:09.971Z,1.85
2022-09-30T16:05:38.684Z,1.73
2022-09-30T16:08:09.736Z,2.53
2022-09-30T16:10:39.632Z,2.50
2022-09-30T16:13:08.058Z,1.98
2022-09-30T16:15:40.572Z,2.42
2022-09-30T16:18:18.875Z,2.05
2022-09-30T16:20:58.116Z,2.08
2022-09-30T16:23:31.017Z,2.03
2022-09-30T16:26:15.541Z,2.05
2022-09-30T16:28:44.232Z,1.90
2022-09-30T16:31:13.167Z,2.10
2022-09-30T16:33:44.011Z,1.98
2022-09-30T16:36:13.375Z,1.90
2022-09-30T16:38:41.778Z,2.20
2022-09-30T16:41:12.772Z,1.95
2022-09-30T16:43:41.729Z,1.88
2022-09-30T16:46:10.785Z,1.85
2022-09-30T16:48:39.877Z,2.13
2022-09-30T16:51:13.741Z,2.13
2022-09-30T16:53:42.617Z,2.17
2022-09-30T16:56:16.603Z,1.80
2022-09-30T16:58:45.123Z,2.40
2022-09-30T17:01:18.948Z,2.47
2022-09-30T17:03:47.633Z,2.47
2022-09-30T17:06:17.712Z,2.83
2022-09-30T17:08:46.179Z,2.72
2022-09-30T17:11:15.180Z,3.05
2022-09-30T17:13:43.590Z,2.90
2022-09-30T17:16:12.094Z,2.20
2022-09-30T17:18:40.673Z,2.40
2022-09-30T17:21:09.072Z,2.13
2022-09-30T17:23:39.341Z,2.15
2022-09-30T17:26:08.004Z,2.08
2022-09-30T17:28:37.528Z,2.58
2022-09-30T17:31:05.950Z,1.95
2022-09-30T17:33:34.833Z,2.20
2022-09-30T17:36:04.229Z,1.92
2022-09-30T17:38:32.688Z,2.10
2022-09-30T17:41:20.283Z,2.00
2022-09-30T17:43:48.848Z,2.20
2022-09-30T17:46:18.841Z,2.78
2022-09-30T17:48:47.624Z,2.47
2022-09-30T17:51:16.693Z,2.25
2022-09-30T17:53:45.218Z,2.20
2022-09-30T17:56:20.184Z,3.20
2022-09-30T17:58:50.634Z,2.78
2022-09-30T18:01:20.271Z,2.88
2022-09-30T18:03:53.115Z,2.60
2022-09-30T18:06:22.026Z,2.60
2022-09-30T18:08:50.532Z,2.50
2022-09-30T18:11:23.188Z,2.72
2022-09-30T18:13:57.785Z,2.85
2022-09-30T18:16:30.259Z,3.20
2022-09-30T18:19:00.227Z,3.55
2022-09-30T18:21:28.923Z,3.55
2022-09-30T18:23:58.448Z,3.25
2022-09-30T18:26:33.336Z,3.10
2022-09-30T18:29:04.476Z,3.22
2022-09-30T18:31:37.934Z,2.97
2022-09-30T18:34:07.546Z,2.78
2022-09-30T18:36:37.409Z,3.45
2022-09-30T18:39:06.162Z,2.80
2022-09-30T18:41:37.395Z,2.97
2022-09-30T18:44:07.382Z,2.88
2022-09-30T18:46:36.067Z,3.03
2022-09-30T18:49:05.759Z,3.50
2022-09-30T18:51:34.819Z,3.08
2022-09-30T18:54:05.707Z,3.22
2022-09-30T18:56:34.705Z,3.10
2022-09-30T18:59:09.035Z,3.70
2022-09-30T19:01:38.643Z,3.38
2022-09-30T19:04:07.904Z,3.20
2022-09-30T19:06:36.296Z,2.88
2022-09-30T19:09:06.528Z,3.30
2022-09-30T19:11:35.396Z,2.42
2022-09-30T19:14:06.948Z,2.42
2022-09-30T19:16:38.992Z,2.47
2022-09-30T19:19:08.270Z,2.47
2022-09-30T19:21:36.943Z,2.30
2022-09-30T19:24:05.962Z,2.10
2022-09-30T19:26:35.128Z,2.20
2022-09-30T19:29:05.406Z,2.40
2022-09-30T19:31:36.736Z,2.30
2022-09-30T19:34:06.319Z,2.30
2022-09-30T19:36:46.004Z,2.20
2022-09-30T19:39:19.210Z,2.08
2022-09-30T19:41:47.896Z,1.90
2022-09-30T19:44:19.224Z,2.22
2022-09-30T19:46:50.515Z,2.33
2022-09-30T19:49:21.742Z,2.33
2022-09-30T19:51:52.533Z,1.98
2022-09-30T19:54:33.072Z,2.22
2022-09-30T19:57:07.537Z,2.20
2022-09-30T19:59:38.071Z,2.10
2022-09-30T20:02:07.183Z,2.35
2022-09-30T20:04:35.612Z,2.25
2022-09-30T20:07:04.471Z,2.40
2022-09-30T20:09:33.313Z,2.60
2022-09-30T20:12:02.295Z,2.60
2022-09-30T20:14:48.684Z,2.58
2022-09-30T20:17:18.708Z,3.03
2022-09-30T20:20:07.234Z,2.85
2022-09-30T20:22:35.761Z,3.47
2022-09-30T20:25:04.554Z,2.80
2022-09-30T20:27:33.132Z,2.92
2022-09-30T20:30:01.669Z,2.53
2022-09-30T20:32:31.729Z,3.42
2022-09-30T20:35:00.222Z,2.88
2022-09-30T20:37:29.837Z,2.90
2022-09-30T20:39:58.583Z,3.35
2022-09-30T20:42:27.918Z,2.95
2022-09-30T20:45:01.173Z,2.85
2022-09-30T20:47:31.683Z,3.25
2022-09-30T20:50:00.327Z,2.65
2022-09-30T20:52:29.564Z,3.05
2022-09-30T20:55:02.189Z,2.53
2022-09-30T20:57:31.176Z,2.85
2022-09-30T21:00:00.257Z,2.40
2022-09-30T21:02:29.149Z,2.95
2022-09-30T21:04:59.698Z,3.10
2022-09-30T21:07:28.464Z,2.78
2022-09-30T21:09:57.453Z,2.85
2022-09-30T21:12:25.960Z,3.25
2022-09-30T21:14:54.573Z,2.53
2022-09-30T21:17:22.966Z,2.80
2022-09-30T21:19:51.544Z,2.72
2022-09-30T21:22:21.371Z,2.65
2022-09-30T21:24:49.777Z,2.60
2022-09-30T21:27:18.601Z,2.88
2022-09-30T21:29:47.043Z,2.83
2022-09-30T21:32:15.498Z,3.30
2022-09-30T21:34:43.924Z,2.92
2022-09-30T21:37:12.567Z,2.92
2022-09-30T21:39:43.301Z,3.90
2022-09-30T21:42:11.697Z,2.88
2022-09-30T21:44:40.099Z,3.40
2022-09-30T21:47:08.496Z,3.30
2022-09-30T21:49:38.434Z,3.30
2022-09-30T21:52:09.167Z,3.05
2022-09-30T21:54:38.173Z,2.97
2022-09-30T21:57:08.630Z,3.35
2022-09-30T21:59:46.371Z,3.63
2022-09-30T22:02:17.055Z,3.08
2022-09-30T22:04:45.499Z,3.30
2022-09-30T22:07:15.420Z,3.65
2022-09-30T22:09:44.046Z,3.38
2022-09-30T22:12:13.799Z,3.28
2022-09-30T22:14:43.330Z,3.47
2022-09-30T22:17:11.737Z,3.40
2022-09-30T22:19:40.146Z,3.08
2022-09-30T22:22:08.531Z,3.60
2022-09-30T22:24:38.198Z,3.38
2022-09-30T22:27:07.482Z,3.67
2022-09-30T22:29:37.413Z,3.60
2022-09-30T22:32:06.013Z,4.20
2022-09-30T22:34:52.205Z,3.67
2022-09-30T22:37:38.256Z,4.15
2022-09-30T22:40:06.879Z,3.78
2022-09-30T22:42:35.786Z,3.83
2022-09-30T22:45:05.687Z,3.88
2022-09-30T22:47:34.138Z,4.18
2022-09-30T22:50:02.794Z,3.78
2022-09-30T22:52:31.997Z,3.70
2022-09-30T22:55:00.416Z,3.85
2022-09-30T22:57:28.831Z,3.70
2022-09-30T22:59:58.979Z,3.97
2022-09-30T23:02:28.806Z,3.65
2022-09-30T23:04:57.238Z,4.20
2022-09-30T23:07:25.691Z,4.10
2022-09-30T23:09:54.113Z,4.00
2022-09-30T23:12:22.580Z,3.70
2022-09-30T23:14:51.156Z,3.67
2022-09-30T23:17:19.818Z,3.80
2022-09-30T23:19:49.572Z,3.83
2022-09-30T23:22:18.430Z,3.72
2022-09-30T23:24:46.826Z,3.63
2022-09-30T23:27:15.254Z,3.42
2022-09-30T23:29:43.624Z,3.45
2022-09-30T23:32:24.342Z,4.00
2022-09-30T23:34:55.097Z,3.83
2022-09-30T23:37:23.544Z,4.00
2022-09-30T23:39:51.978Z,3.60
2022-09-30T23:42:20.413Z,4.15
2022-09-30T23:44:48.862Z,4.47
2022-09-30T23:47:21.491Z,4.18
2022-09-30T23:49:50.928Z,3.80
2022-09-30T23:52:20.727Z,3.83
2022-09-30T23:54:49.179Z,4.00
2022-09-30T23:57:17.892Z,3.60
2022-09-30T23:59:46.311Z,4.07
